Meteo Giornale » Osservazioni meteo Italia » Palermo-Punta Raisi

ore: 01:20 - Osservazioni Meteo Palermo-Punta Raisi
Lat. 38° 11' N Lon. 13° 6' E Alt. 21 metri s.l.m.

sereno Europe/Rome

15 °C

Sereno

Temp. 24 Ore

12 °C

19 °C

Nord

3.7 Km/h

Dew point 7 °C

Umidità 58 %

Visibilità  10 Km

Il sole sorge alle ore 07:08

Il sole tramonta alle ore 16:48

Data e Ora Cielo e Fenomeni T °C DP °C Um. % Pres. hPa Vis. km Vento km/h
Oggi h: 01:20 sereno Sereno 15 7 58 1018 10 N 3.7
Oggi h: 00:50 sereno Sereno 15 7 58 1018 10 N 3.7
Oggi h: 00:20 sereno Sereno 16 8 58 1019 10 S/SO 13
Ieri h: 23:50 sereno Sereno 17 8 55 1019 10 SO 11.1
Ieri h: 23:20 sereno Sereno 16 3 41 1019 10 S/SE 11.1
Ieri h: 22:50 sereno Sereno 16 6 51 1019 10 S/SO 16.7
Ieri h: 22:20 sereno Sereno 16 5 47 1019 10 S 11.1
Ieri h: 21:50 sereno Sereno 16 9 63 1019 10 SO 7.4
Ieri h: 21:20 sereno Sereno 13 7 66 1019 10 E/SE 9.3
Ieri h: 20:50 sereno Sereno 15 7 58 1019 10 S/SO 7.4
Ieri h: 20:20 sereno Sereno 15 6 54 1020 10 S/SE 7.4
Ieri h: 19:50 sereno Sereno 15 7 58 1020 10 N 3.7
Ieri h: 19:20 sereno Sereno 17 5 45 1020 10 N 5.5
Ieri h: 18:50 sereno Sereno 17 5 45 1020 10 N 5.5
Ieri h: 18:20 sereno Sereno 16 6 51 1020 10 S/SE 9.3
Ieri h: 17:50 sereno Sereno 16 9 63 1019 10 S/SE 11.1
Ieri h: 17:20 sereno Sereno 16 8 58 1020 10 S 9.3
Ieri h: 16:50 sereno Sereno 17 9 59 1020 10 N 3.7
Ieri h: 16:20 sereno Sereno 17 9 59 1020 10 E/NE 9.3
Ieri h: 15:50 sereno Sereno 18 10 59 1020 10 NE 11.1
Ieri h: 15:20 sereno Sereno 19 8 48 1020 10 E/NE 13
Ieri h: 14:50 sereno Sereno 19 9 52 1020 10 NE 14.8
Ieri h: 14:20 sereno Sereno 19 9 52 1020 10 NE 13
Ieri h: 13:50 sereno Sereno 18 10 59 1020 10 NE 11.1
Ieri h: 13:20 sereno Sereno 18 13 72 1020 10 N/NE 11.1
Ieri h: 12:50 sereno Sereno 18 13 72 1021 10 N 9.3
Ieri h: 12:20 sereno Sereno 18 13 72 1021 10 N/NE 9.3
Ieri h: 11:50 sereno Sereno 18 12 67 1021 10 N 9.3
Ieri h: 11:20 sereno Sereno 18 12 67 1022 10 N 7.4
Ieri h: 10:50 sereno Sereno 18 9 55 1022 10 NE 7.4
Ieri h: 10:20 sereno Sereno 18 9 55 1022 10 NE 9.3
Ieri h: 09:50 sereno Sereno 17 10 63 1022 10 S 9.3
Ieri h: 09:20 sereno Sereno 16 10 67 1022 10 S/SO 11.1
Ieri h: 08:50 sereno Sereno 15 8 62 1021 10 S 9.3
Ieri h: 08:20 sereno Sereno 14 6 58 1021 10 S/SE 9.3
Ieri h: 07:50 sereno Sereno 16 6 51 1021 10 E/SE 9.3
Ieri h: 07:20 sereno Sereno 14 6 58 1021 10 SE 13
Ieri h: 06:50 sereno Sereno 13 8 71 1020 10 S 9.3
Ieri h: 06:20 sereno Sereno 15 7 58 1020 10 S/SO 7.4
Ieri h: 05:50 sereno Sereno 13 6 62 1020 10 S/SE 7.4
Ieri h: 05:20 sereno Sereno 14 6 58 1020 10 S 9.3
Ieri h: 04:50 sereno Sereno 14 9 71 1020 10 S 9.3
Ieri h: 04:20 sereno Sereno 16 7 55 1020 10 N 5.5
Ieri h: 03:50 sereno Sereno 14 6 58 1020 10 S/SE 11.1
Ieri h: 03:20 sereno Sereno 13 7 66 1020 10 SE 9.3
Ieri h: 02:50 sereno Sereno 15 7 58 1020 10 S/SO 7.4
Ieri h: 02:20 sereno Sereno 14 7 62 1020 10 S/SO 7.4
Ieri h: 01:50 sereno Sereno 13 6 62 1019 10 S 9.3
Ieri h: 01:20 sereno Sereno 13 7 66 1019 10 S/SE 7.4
Ieri h: 00:50 sereno Sereno 12 7 71 1019 10 S/SE 7.4